PORTS® Data Listing: 8770613 Morgans Point, TX

CO-OPS RAW PORTS DATA

************************      PRELIMINARY DATA      ************************** 

     THIS RAW DATA HAS NOT BEEN SUBJECT TO THE NATIONAL OCEAN SERVICE'S        
     QUALITY CONTROL OR QUALITY ASSURANCE PROCEDURES AND DOES NOT MEET         
     THE CRITERIA AND STANDARDS OF OFFICIAL NATIONAL OCEAN SERVICE             
     DATA.  IT IS RELEASED FOR LIMITED PUBLIC USE AS PRELIMINARY DATA TO       
     BE USED ONLY WITH APPROPRIATE CAUTION.                                    

************************      PRELIMINARY DATA      ************************** 


       CD   -   Calendar date
       T    -   Time
       TZ   -   Timezone
       PW   -   Predicted water level (feet above MLLW)
       OW   -   Observed water level (feet above MLLW)
       WS   -   Wind speed (knots)
       WD   -   Wind direction (degrees true)
       WG   -   Wind gust (knots)
       AT   -   Air temperature (degrees farenheit)
       WT   -   Water temperature (degrees farenheit)
       AP   -   Air pressure (millibars)
       SA   -   Salinty (PSU - Practical Salinity Units)
       SG   -   Specific gravity
       RH   -   Relative humidity
       AG   -   Air gap (feet)
       VI   -   Visibility (nautical miles)

       ** NOTE **
       A variable that has its data fields filled with "9"s, indicates that
       data was not collected for that sample period.
       **********


STATION NAME: Morgans Point (8770613)
****************************************************************************************************
    CD       T    TZ    PW     OW    WS   WD   WG    AT    WT    AP    SA    SG     RH    AG   VI
****************************************************************************************************
2020/02/27 09:48 CST    0.36   0.03    0   36    2  46.6  58.5 1031.6 12.3  1.010 -99.9 -99.99 -9.99
2020/02/27 09:54 CST    0.37  -0.05    1   10    2  46.2  58.5 1031.5 12.3  1.010 -99.9 -99.99 -9.99
2020/02/27 10:00 CST    0.37  -0.08    2    8    3  46.2  58.5 1031.5 12.3  1.010 -99.9 -99.99 -9.99
2020/02/27 10:06 CST    0.38  -0.03    3  327    4  45.9  58.5 1031.4 12.3  1.009 -99.9 -99.99 -9.99
2020/02/27 10:12 CST    0.39   0.14    4  313    5  45.9  58.3 1031.4 12.2  1.009 -99.9 -99.99 -9.99
2020/02/27 10:18 CST    0.39   0.18    4  316    5  46.0  58.3 1031.3 12.2  1.009 -99.9 -99.99 -9.99
2020/02/27 10:24 CST    0.40   0.15    4  309    5  46.2  58.5 1031.2 12.3  1.009 -99.9 -99.99 -9.99
2020/02/27 10:30 CST    0.40   0.13    3  310    5  46.6  58.5 1031.2 12.3  1.009 -99.9 -99.99 -9.99
2020/02/27 10:36 CST    0.40   0.15    5  283    7  46.6  58.6 1031.1 12.2  1.009 -99.9 -99.99 -9.99
2020/02/27 10:42 CST    0.41   0.24    7  307    9  46.9  58.6 1031.1 12.3  1.009 -99.9 -99.99 -9.99
2020/02/27 10:48 CST    0.41   0.25    6  295    8  47.1  58.6 1031.2 12.3  1.009 -99.9 -99.99 -9.99
2020/02/27 10:54 CST    0.41   0.35    3  312    8  47.3  58.6 1031.1 12.3  1.009 -99.9 -99.99 -9.99
2020/02/27 11:00 CST    0.41   0.33    3   10    6  48.0  58.6 1031.0 12.3  1.009 -99.9 -99.99 -9.99
2020/02/27 11:06 CST    0.41   0.34    3  341    7  47.8  58.6 1031.1 12.3  1.009 -99.9 -99.99 -9.99
2020/02/27 11:12 CST    0.41   0.31    5  330    9  47.8  58.8 1031.1 12.3  1.009 -99.9 -99.99 -9.99
2020/02/27 11:18 CST    0.41   0.35    4  325   10  47.7  58.8 1031.1 12.3  1.009 -99.9 -99.99 -9.99
2020/02/27 11:24 CST    0.41   0.30    1    9    4  48.0  58.8 1031.0 12.3  1.009 -99.9 -99.99 -9.99
2020/02/27 11:30 CST    0.41   0.35    2   59    3  48.0  58.8 1030.9 12.3  1.009 -99.9 -99.99 -9.99
2020/02/27 11:36 CST    0.41   0.41    5  335    6  48.4  58.8 1030.8 12.3  1.009 -99.9 -99.99 -9.99
2020/02/27 11:42 CST    0.41   0.45    4  310    8  48.0  58.8 1030.8 12.3  1.009 -99.9 -99.99 -9.99
2020/02/27 11:48 CST    0.40   0.12    5  298    6  48.4  59.0 1030.7 12.3  1.009 -99.9 -99.99 -9.99
2020/02/27 11:54 CST    0.40   0.27    2   13    5  48.9  59.4 1030.6 12.3  1.009 -99.9 -99.99 -9.99
2020/02/27 12:00 CST    0.40   0.32    4  307    7  48.6  59.4 1030.5 12.3  1.009 -99.9 -99.99 -9.99
2020/02/27 12:06 CST    0.39   0.40    6  318    8  49.3  59.5 1030.5 12.3  1.009 -99.9 -99.99 -9.99
2020/02/27 12:12 CST    0.39   0.41    6  318    9  49.1  59.5 1030.4 12.3  1.009 -99.9 -99.99 -9.99
2020/02/27 12:18 CST    0.38   0.37    6  321   10  49.5  59.5 1030.3 12.3  1.009 -99.9 -99.99 -9.99
2020/02/27 12:24 CST    0.38   0.41    4  303   10  49.6  59.5 1030.2 12.4  1.009 -99.9 -99.99 -9.99
2020/02/27 12:30 CST    0.37   0.46    6  325    8  50.0  59.7 1030.1 12.3  1.009 -99.9 -99.99 -9.99
2020/02/27 12:36 CST    0.37   0.37    8  292   12  50.5  59.9 1030.0 12.4  1.009 -99.9 -99.99 -9.99
2020/02/27 12:42 CST    0.36   0.37    5  309    9  50.5  60.1 1029.8 12.4  1.009 -99.9 -99.99 -9.99
2020/02/27 12:48 CST    0.36   0.44    6  304    9  50.7  60.3 1029.7 12.4  1.009 -99.9 -99.99 -9.99
2020/02/27 12:54 CST    0.35   0.46    5  296   10  50.7  60.3 1029.7 12.4  1.009 -99.9 -99.99 -9.99
2020/02/27 13:00 CST    0.34   0.46    5  298    7  51.1  60.3 1029.5 12.4  1.009 -99.9 -99.99 -9.99
2020/02/27 13:06 CST    0.34   0.35    8  328   10  51.1  60.3 1029.4 12.4  1.009 -99.9 -99.99 -9.99
2020/02/27 13:12 CST    0.33   0.38    5  317   11  51.1  60.3 1029.2 12.3  1.009 -99.9 -99.99 -9.99
2020/02/27 13:18 CST    0.32   0.47    4  324    7  51.4  60.4 1029.1 12.3  1.009 -99.9 -99.99 -9.99
2020/02/27 13:24 CST    0.32   0.48    6  321    8  51.6  60.3 1028.9 12.3  1.009 -99.9 -99.99 -9.99
2020/02/27 13:30 CST    0.31   0.45    5  325    9  51.6  60.3 1028.7 12.3  1.009 -99.9 -99.99 -9.99
2020/02/27 13:36 CST    0.30   0.39    5  308    8  51.8  60.3 1028.6 12.3  1.009 -99.9 -99.99 -9.99
2020/02/27 13:42 CST    0.29   0.38    6  317    8  51.8  60.3 1028.5 12.3  1.009 -99.9 -99.99 -9.99
2020/02/27 13:48 CST    0.29   0.45    6  303    7  51.8  60.3 1028.4 12.3  1.009 -99.9 -99.99 -9.99
2020/02/27 13:54 CST    0.28   0.45    5  330    8  52.2  60.4 1028.3 12.3  1.009 -99.9 -99.99 -9.99
2020/02/27 14:00 CST    0.27   0.42    5  324    7  52.5  60.3 1028.1 12.3  1.009 -99.9 -99.99 -9.99
2020/02/27 14:06 CST    0.27   0.41    7  355    9  51.6  60.3 1028.1 12.3  1.009 -99.9 -99.99 -9.99
2020/02/27 14:12 CST    0.26   0.44    6   71   11  51.4  60.3 1028.0 12.3  1.009 -99.9 -99.99 -9.99
2020/02/27 14:18 CST    0.25   0.40    3   10    7  52.7  60.3 1027.9 12.3  1.009 -99.9 -99.99 -9.99
2020/02/27 14:24 CST    0.25   0.37    4  340    6  53.2  60.3 1027.9 12.3  1.009 -99.9 -99.99 -9.99
2020/02/27 14:30 CST    0.24   0.40    5  335    7  53.2  60.3 1027.7 12.3  1.009 -99.9 -99.99 -9.99
2020/02/27 14:36 CST    0.24   0.40    7  317    8  53.1  60.3 1027.6 12.3  1.009 -99.9 -99.99 -9.99
2020/02/27 14:42 CST    0.23   0.45    6  321    7  53.6  60.3 1027.5 12.3  1.009 -99.9 -99.99 -9.99
2020/02/27 14:48 CST    0.23   0.39    7  338   10  53.6  60.1 1027.5 12.3  1.009 -99.9 -99.99 -9.99
2020/02/27 14:54 CST    0.22   0.33    3  320    6  54.0  60.1 1027.4 12.3  1.009 -99.9 -99.99 -9.99
2020/02/27 15:00 CST    0.22   0.38    4  347    5  54.1  60.1 1027.3 12.3  1.009 -99.9 -99.99 -9.99
2020/02/27 15:06 CST    0.21   0.39    4  339    5  54.1  60.1 1027.3 12.3  1.009 -99.9 -99.99 -9.99
2020/02/27 15:12 CST    0.21   0.41    3  356    5  54.5  60.1 1027.2 12.3  1.009 -99.9 -99.99 -9.99
2020/02/27 15:18 CST    0.20   0.39    2  341    5  55.0  60.1 1027.1 12.3  1.009 -99.9 -99.99 -9.99
2020/02/27 15:24 CST    0.20   0.37    3  358    5  55.4  60.1 1027.0 12.3  1.009 -99.9 -99.99 -9.99
2020/02/27 15:30 CST    0.20   0.36    1  348    3  55.6  60.1 1026.9 12.3  1.009 -99.9 -99.99 -9.99
2020/02/27 15:36 CST    0.19   0.36    3  336    4  55.9  60.1 1026.9 12.3  1.009 -99.9 -99.99 -9.99
2020/02/27 15:42 CST    0.19   0.37    4  333    5  55.6  60.1 1026.8 12.3  1.009 -99.9 -99.99 -9.99
2020/02/27 15:48 CST    0.19   0.43    6  339    7  55.4  60.1 1026.8 12.3  1.009 -99.9 -99.99 -9.99
2020/02/27 15:54 CST    0.18   0.38    5  336    7  55.6  60.1 1026.7 12.3  1.009 -99.9 -99.99 -9.99
2020/02/27 16:00 CST    0.18   0.41    6  320    8  55.4  60.3 1026.6 12.2  1.009 -99.9 -99.99 -9.99
2020/02/27 16:06 CST    0.18   0.37    5  337    8  55.8  60.3 1026.6 12.2  1.009 -99.9 -99.99 -9.99
2020/02/27 16:12 CST    0.18   0.39    3   71    9  54.9  60.3 1026.6 12.2  1.009 -99.9 -99.99 -9.99
2020/02/27 16:18 CST    0.17   0.43    4  118    7  55.8  60.3 1026.6 12.2  1.009 -99.9 -99.99 -9.99
2020/02/27 16:24 CST    0.17   0.41    7  132    9  54.5  60.3 1026.6 12.2  1.009 -99.9 -99.99 -9.99
2020/02/27 16:30 CST    0.17   0.41    6  122    9  54.3  60.3 1026.6 12.2  1.009 -99.9 -99.99 -9.99
2020/02/27 16:36 CST    0.17   0.39    6  141    9  55.2  60.3 1026.5 12.2  1.009 -99.9 -99.99 -9.99
2020/02/27 16:42 CST    0.17   0.42    5  155    9  54.5  60.3 1026.5 12.2  1.009 -99.9 -99.99 -9.99
2020/02/27 16:48 CST    0.17   0.44    7  162    9  54.7  60.3 1026.5 12.2  1.009 -99.9 -99.99 -9.99
2020/02/27 16:54 CST    0.17   0.43    9  165   11  54.1  60.3 1026.5 12.1  1.009 -99.9 -99.99 -9.99
2020/02/27 17:00 CST    0.17   0.46    4  161   10  54.9  60.3 1026.5 12.1  1.009 -99.9 -99.99 -9.99
2020/02/27 17:06 CST    0.17   0.47    8  161   10  54.1  60.3 1026.6 12.1  1.009 -99.9 -99.99 -9.99
2020/02/27 17:12 CST    0.17   0.53    6  172    8  53.8  60.3 1026.6 12.1  1.009 -99.9 -99.99 -9.99
2020/02/27 17:18 CST    0.18   0.48    6  158   10  54.1  59.7 1026.7 12.2  1.009 -99.9 -99.99 -9.99
2020/02/27 17:24 CST    0.18   0.58    7  161    9  53.6  59.5 1026.7 12.2  1.009 -99.9 -99.99 -9.99
2020/02/27 17:30 CST    0.18   0.42    7  165   10  53.6  59.2 1026.7 12.3  1.009 -99.9 -99.99 -9.99
2020/02/27 17:36 CST    0.19   0.55    6  165   10  53.4  59.2 1026.8 12.3  1.009 -99.9 -99.99 -9.99
2020/02/27 17:42 CST    0.19   0.46    7  153    9  53.4  59.0 1026.8 12.3  1.009 -99.9 -99.99 -9.99
2020/02/27 17:48 CST    0.20   0.61    6  164   10  53.2  58.8 1026.9 12.3  1.009 -99.9 -99.99 -9.99
2020/02/27 17:54 CST    0.20   0.49    7  162    9  53.2  58.8 1026.9 12.3  1.009 -99.9 -99.99 -9.99
2020/02/27 18:00 CST    0.21   0.53    6  168   10  53.1  58.8 1026.9 12.3  1.009 -99.9 -99.99 -9.99
2020/02/27 18:06 CST    0.22   0.51    9  175   12  52.9  58.8 1026.9 12.3  1.009 -99.9 -99.99 -9.99
2020/02/27 18:12 CST    0.23   0.60    7  175   11  52.9  58.8 1026.9 12.3  1.009 -99.9 -99.99 -9.99
2020/02/27 18:18 CST    0.23   0.55   10  172   12  52.5  58.8 1027.0 12.3  1.009 -99.9 -99.99 -9.99
2020/02/27 18:24 CST    0.24   0.49    7  181   11  52.7  58.8 1027.0 12.3  1.009 -99.9 -99.99 -9.99
2020/02/27 18:30 CST    0.25   0.55    9  187   12  52.5  58.8 1026.9 12.3  1.009 -99.9 -99.99 -9.99
2020/02/27 18:36 CST    0.26   0.58    7  179   11  52.3  58.8 1026.9 12.3  1.009 -99.9 -99.99 -9.99
2020/02/27 18:42 CST    0.27   0.59    9  177   12  52.2  58.8 1026.9 12.3  1.009 -99.9 -99.99 -9.99
2020/02/27 18:48 CST    0.28   0.59    7  189   11  51.8  58.8 1026.9 12.3  1.009 -99.9 -99.99 -9.99
2020/02/27 18:54 CST    0.29   0.57    8  187   11  51.6  58.8 1026.9 12.3  1.009 -99.9 -99.99 -9.99
2020/02/27 19:00 CST    0.29   0.64    9  187   12  51.1  59.0 1027.0 12.2  1.009 -99.9 -99.99 -9.99
2020/02/27 19:06 CST    0.30   0.61    6  194   11  50.9  59.0 1027.0 12.2  1.009 -99.9 -99.99 -9.99
2020/02/27 19:12 CST    0.31   0.65    9  189   12  50.7  58.8 1027.0 12.3  1.009 -99.9 -99.99 -9.99
2020/02/27 19:18 CST    0.32   0.63    6  189   10  50.7  59.0 1027.1 12.2  1.009 -99.9 -99.99 -9.99
2020/02/27 19:24 CST    0.33   0.67    7  191   12  50.5  59.0 1027.1 12.2  1.009 -99.9 -99.99 -9.99
2020/02/27 19:30 CST    0.34   0.64    8  190   12  50.4  59.0 1027.2 12.2  1.009 -99.9 -99.99 -9.99
2020/02/27 19:36 CST    0.34   0.71    8  189   11  50.4  59.0 1027.3 12.2  1.009 -99.9 -99.99 -9.99
2020/02/27 19:42 CST    0.35   0.55    8  188   11  50.4  59.0 1027.3 12.2  1.009 -99.9 -99.99 -9.99
2020/02/27 19:48 CST    0.36   0.74    7  195   11  50.4  59.2 1027.4 12.2  1.009 -99.9 -99.99 -9.99
2020/02/27 19:54 CST    0.37   0.71    6  198   11  50.4  59.2 1027.4 12.2  1.009 -99.9 -99.99 -9.99
2020/02/27 20:00 CST    0.37   0.77    8  190   13  50.4  59.0 1027.4 12.2  1.009 -99.9 -99.99 -9.99
2020/02/27 20:06 CST    0.38   0.68    5  189   10  50.4  59.0 1027.5 12.2  1.009 -99.9 -99.99 -9.99
2020/02/27 20:12 CST    0.39   0.74    4  208   10  50.4  59.2 1027.5 12.2  1.009 -99.9 -99.99 -9.99
2020/02/27 20:18 CST    0.39   0.75    5  209    8  50.4  59.2 1027.5 12.2  1.009 -99.9 -99.99 -9.99
2020/02/27 20:24 CST    0.40   0.83    6  214    8  50.2  59.2 1027.5 12.2  1.009 -99.9 -99.99 -9.99
2020/02/27 20:30 CST    0.41   0.87    6  213   11  50.0  59.2 1027.6 12.2  1.009 -99.9 -99.99 -9.99
2020/02/27 20:36 CST    0.42   0.72    6  214   10  50.0  59.2 1027.6 12.2  1.009 -99.9 -99.99 -9.99
2020/02/27 20:42 CST    0.42   0.78    4  214    9  49.8  59.0 1027.6 12.3  1.009 -99.9 -99.99 -9.99
2020/02/27 20:48 CST    0.43   0.78    6  213    9  49.6  59.0 1027.6 12.2  1.009 -99.9 -99.99 -9.99
2020/02/27 20:54 CST    0.44   0.90    6  207   10  49.6  59.0 1027.7 12.2  1.009 -99.9 -99.99 -9.99
2020/02/27 21:00 CST    0.44   0.93    6  200   10  49.6  59.0 1027.7 12.2  1.009 -99.9 -99.99 -9.99
2020/02/27 21:06 CST    0.45   0.87    4  217    8  49.6  59.0 1027.9 12.2  1.009 -99.9 -99.99 -9.99
2020/02/27 21:12 CST    0.46   0.94    4  208    8  49.5  59.0 1027.9 12.2  1.009 -99.9 -99.99 -9.99
2020/02/27 21:18 CST    0.46   0.94    5  212    8  49.5  58.8 1028.1 12.3  1.009 -99.9 -99.99 -9.99
2020/02/27 21:24 CST    0.47   0.97    5  215    8  49.1  58.8 1028.2 12.3  1.009 -99.9 -99.99 -9.99
2020/02/27 21:30 CST    0.48   1.00    5  218    8  48.9  58.8 1028.3 12.3  1.009 -99.9 -99.99 -9.99
2020/02/27 21:36 CST    0.48   1.06    5  215    9  48.7  58.8 1028.3 12.3  1.009 -99.9 -99.99 -9.99
2020/02/27 21:42 CST    0.49   1.00    4  206    8  48.7  58.8 1028.2 12.3  1.009 -99.9 -99.99 -9.99
2020/02/27 21:48 CST    0.49   0.93    4  212    8  48.7  58.8 1028.2 12.3  1.009 -99.9 -99.99 -9.99
2020/02/27 21:54 CST    0.50   0.81    5  208    8  48.9  58.8 1028.4 12.3  1.009 -99.9 -99.99 -9.99
2020/02/27 22:00 CST    0.50   0.98    6  210    9  48.7  58.8 1028.4 12.2  1.009 -99.9 -99.99 -9.99
2020/02/27 22:06 CST    0.50   1.02    4  214    7  48.7  58.8 1028.4 12.2  1.009 -99.9 -99.99 -9.99
2020/02/27 22:12 CST    0.51   0.98    4  209    7  48.6  58.6 1028.5 12.3  1.009 -99.9 -99.99 -9.99
2020/02/27 22:18 CST    0.51   1.06    4  203    6  48.6  58.6 1028.5 12.3  1.009 -99.9 -99.99 -9.99
2020/02/27 22:24 CST    0.51   1.06    3  214    7  48.7  58.6 1028.5 12.3  1.009 -99.9 -99.99 -9.99
2020/02/27 22:30 CST    0.51   1.11    4  217    6  48.7  58.6 1028.6 12.2  1.009 -99.9 -99.99 -9.99
2020/02/27 22:36 CST    0.51   1.10    2  203    5  48.7  58.5 1028.6 12.3  1.009 -99.9 -99.99 -9.99
2020/02/27 22:42 CST    0.51   0.98    3  219    5  48.7  58.5 1028.6 12.3  1.009 -99.9 -99.99 -9.99
2020/02/27 22:48 CST    0.51   1.05    3  203    5  48.6  58.3 1028.5 12.3  1.009 -99.9 -99.99 -9.99
2020/02/27 22:54 CST    0.51   1.06    2  210    4  48.6  58.3 1028.5 12.3  1.009 -99.9 -99.99 -9.99
2020/02/27 23:00 CST    0.50   1.08    2  198    4  48.6  58.3 1028.5 12.3  1.009 -99.9 -99.99 -9.99
2020/02/27 23:06 CST    0.50   1.10    2  229    4  48.4  58.3 1028.6 12.3  1.009 -99.9 -99.99 -9.99
2020/02/27 23:12 CST    0.50   1.00    3  216    4  48.2  58.3 1028.5 12.2  1.009 -99.9 -99.99 -9.99
2020/02/27 23:18 CST    0.49   1.03    1  202    2  48.2  58.3 1028.5 12.2  1.009 -99.9 -99.99 -9.99
2020/02/27 23:24 CST    0.48   0.97    3  202    4  48.0  58.3 1028.3 12.2  1.009 -99.9 -99.99 -9.99
2020/02/27 23:30 CST    0.48   1.05    1  215    4  48.2  58.3 1028.3 12.2  1.009 -99.9 -99.99 -9.99
2020/02/27 23:36 CST    0.47   0.95    2  238    3  48.2  58.3 1028.2 12.2  1.009 -99.9 -99.99 -9.99
2020/02/27 23:42 CST    0.46   1.00    1  207    4  48.0  58.3 1028.3 12.2  1.009 -99.9 -99.99 -9.99
2020/02/27 23:48 CST    0.46   1.04    2  224    3  47.8  58.3 1028.2 12.2  1.009 -99.9 -99.99 -9.99
2020/02/27 23:54 CST    0.45   0.97    3  227    4  47.8  58.3 1028.1 12.2  1.009 -99.9 -99.99 -9.99
2020/02/28 00:00 CST    0.44   0.91    3  231    5  48.0  58.3 1028.1 12.2  1.009 -99.9 -99.99 -9.99
2020/02/28 00:06 CST    0.43   0.92    3  233    5  47.8  58.3 1028.0 12.2  1.009 -99.9 -99.99 -9.99
2020/02/28 00:12 CST    0.42   0.95    4  230    6  48.0  58.3 1028.0 12.2  1.009 -99.9 -99.99 -9.99
2020/02/28 00:18 CST    0.41   0.94    4  231    6  47.8  58.3 1028.0 12.2  1.009 -99.9 -99.99 -9.99
2020/02/28 00:24 CST    0.40   0.94    4  234    6  47.7  58.3 1028.0 12.2  1.009 -99.9 -99.99 -9.99
2020/02/28 00:30 CST    0.39   0.87    5  233    7  47.5  58.3 1028.0 12.2  1.009 -99.9 -99.99 -9.99
2020/02/28 00:36 CST    0.38   0.83    5  234    6  47.5  58.5 1028.0 12.2  1.009 -99.9 -99.99 -9.99
2020/02/28 00:42 CST    0.37   0.87    5  234    7  47.5  58.5 1027.9 12.3  1.009 -99.9 -99.99 -9.99
2020/02/28 00:48 CST    0.35   0.87    4  235    7  47.5  58.5 1027.9 12.3  1.009 -99.9 -99.99 -9.99
2020/02/28 00:54 CST    0.34   0.84    4  231    6  47.5  58.5 1027.8 12.3  1.009 -99.9 -99.99 -9.99
2020/02/28 01:00 CST    0.33   0.80    5  231    6  47.3  58.5 1027.8 12.3  1.009 -99.9 -99.99 -9.99
2020/02/28 01:06 CST    0.32   0.76    5  227    7  47.7  58.5 1027.8 12.3  1.009 -99.9 -99.99 -9.99
2020/02/28 01:12 CST    0.30   0.79    6  227    8  48.0  58.3 1027.7 12.3  1.010 -99.9 -99.99 -9.99
2020/02/28 01:18 CST    0.29   0.74    6  229    8  48.2  58.3 1027.7 12.3  1.010 -99.9 -99.99 -9.99
2020/02/28 01:24 CST    0.28   0.72    5  229    7  48.4  58.3 1027.7 12.3  1.010 -99.9 -99.99 -9.99
2020/02/28 01:30 CST    0.26   0.67    6  232   10  48.6  58.3 1027.7 12.3  1.010 -99.9 -99.99 -9.99
2020/02/28 01:36 CST    0.25   0.69    6  228   10  48.6  58.3 1027.7 12.3  1.010 -99.9 -99.99 -9.99
2020/02/28 01:42 CST    0.24   0.66    6  221    8  48.6  58.3 1027.6 12.3  1.010 -99.9 -99.99 -9.99
2020/02/28 01:48 CST    0.22   0.52    5  221    8  48.6  58.3 1027.6 12.3  1.010 -99.9 -99.99 -9.99
2020/02/28 01:54 CST    0.21   0.59    6  223   10  48.4  58.3 1027.6 12.3  1.009 -99.9 -99.99 -9.99
2020/02/28 02:00 CST    0.19   0.59    6  225    9  48.2  58.3 1027.5 12.3  1.009 -99.9 -99.99 -9.99
2020/02/28 02:06 CST    0.18   0.63    5  224    8  48.2  58.3 1027.6 12.3  1.009 -99.9 -99.99 -9.99
2020/02/28 02:12 CST    0.17   0.58    6  228    9  48.2  58.3 1027.5 12.3  1.009 -99.9 -99.99 -9.99
2020/02/28 02:18 CST    0.15   0.55    6  225    8  48.4  58.3 1027.3 12.3  1.009 -99.9 -99.99 -9.99
2020/02/28 02:24 CST    0.14   0.59    6  234    8  48.4  58.3 1027.2 12.3  1.009 -99.9 -99.99 -9.99
2020/02/28 02:30 CST    0.12   0.53    5  230    8  48.2  58.3 1027.2 12.3  1.009 -99.9 -99.99 -9.99
2020/02/28 02:36 CST    0.11   0.51    5  234    6  47.8  58.3 1027.2 12.3  1.009 -99.9 -99.99 -9.99
2020/02/28 02:42 CST    0.10   0.47    4  235    7  47.8  58.3 1027.1 12.2  1.009 -99.9 -99.99 -9.99
2020/02/28 02:48 CST    0.08   0.46    4  239    5  47.8  58.1 1027.1 12.3  1.010 -99.9 -99.99 -9.99
2020/02/28 02:54 CST    0.07   0.48    4  237    6  48.0  58.1 1027.1 12.3  1.010 -99.9 -99.99 -9.99
2020/02/28 03:00 CST    0.06   0.45    4  239    7  47.7  58.1 1027.0 12.3  1.010 -99.9 -99.99 -9.99
2020/02/28 03:06 CST    0.05   0.41    6  239    7  48.0  58.1 1026.9 12.3  1.010 -99.9 -99.99 -9.99
2020/02/28 03:12 CST    0.04   0.36    5  241    7  48.0  58.1 1026.8 12.3  1.010 -99.9 -99.99 -9.99
2020/02/28 03:18 CST    0.02   0.35    5  236    7  47.7  58.1 1026.8 12.3  1.010 -99.9 -99.99 -9.99
2020/02/28 03:24 CST    0.01   0.35    4  240    6  47.5  58.1 1026.8 12.3  1.010 -99.9 -99.99 -9.99
2020/02/28 03:30 CST    0.00   0.35    5  239    6  47.3  58.1 1026.8 12.3  1.010 -99.9 -99.99 -9.99
2020/02/28 03:36 CST   -0.01   0.35    5  238    7  47.3  58.1 1026.7 12.3  1.010 -99.9 -99.99 -9.99
2020/02/28 03:42 CST   -0.02 -99.99 -999 -999 -999 -99.9 -99.9 -999.9 -9.9 -9.999 -99.9 -99.99 -9.99
2020/02/28 03:48 CST   -0.03 -99.99 -999 -999 -999 -99.9 -99.9 -999.9 -9.9 -9.999 -99.9 -99.99 -9.99
2020/02/28 03:54 CST   -0.04 -99.99 -999 -999 -999 -99.9 -99.9 -999.9 -9.9 -9.999 -99.9 -99.99 -9.99
2020/02/28 04:00 CST   -0.05 -99.99 -999 -999 -999 -99.9 -99.9 -999.9 -9.9 -9.999 -99.9 -99.99 -9.99
2020/02/28 04:06 CST   -0.05 -99.99 -999 -999 -999 -99.9 -99.9 -999.9 -9.9 -9.999 -99.9 -99.99 -9.99
2020/02/28 04:12 CST   -0.06 -99.99 -999 -999 -999 -99.9 -99.9 -999.9 -9.9 -9.999 -99.9 -99.99 -9.99
2020/02/28 04:18 CST   -0.07 -99.99 -999 -999 -999 -99.9 -99.9 -999.9 -9.9 -9.999 -99.9 -99.99 -9.99
2020/02/28 04:24 CST   -0.08 -99.99 -999 -999 -999 -99.9 -99.9 -999.9 -9.9 -9.999 -99.9 -99.99 -9.99
2020/02/28 04:30 CST   -0.09 -99.99 -999 -999 -999 -99.9 -99.9 -999.9 -9.9 -9.999 -99.9 -99.99 -9.99
2020/02/28 04:36 CST   -0.09 -99.99 -999 -999 -999 -99.9 -99.9 -999.9 -9.9 -9.999 -99.9 -99.99 -9.99
2020/02/28 04:42 CST   -0.10 -99.99 -999 -999 -999 -99.9 -99.9 -999.9 -9.9 -9.999 -99.9 -99.99 -9.99
2020/02/28 04:48 CST   -0.10 -99.99 -999 -999 -999 -99.9 -99.9 -999.9 -9.9 -9.999 -99.9 -99.99 -9.99
2020/02/28 04:54 CST   -0.11 -99.99 -999 -999 -999 -99.9 -99.9 -999.9 -9.9 -9.999 -99.9 -99.99 -9.99
2020/02/28 05:00 CST   -0.11 -99.99 -999 -999 -999 -99.9 -99.9 -999.9 -9.9 -9.999 -99.9 -99.99 -9.99
2020/02/28 05:06 CST   -0.12 -99.99 -999 -999 -999 -99.9 -99.9 -999.9 -9.9 -9.999 -99.9 -99.99 -9.99
2020/02/28 05:12 CST   -0.12 -99.99 -999 -999 -999 -99.9 -99.9 -999.9 -9.9 -9.999 -99.9 -99.99 -9.99
2020/02/28 05:18 CST   -0.12 -99.99 -999 -999 -999 -99.9 -99.9 -999.9 -9.9 -9.999 -99.9 -99.99 -9.99
2020/02/28 05:24 CST   -0.13 -99.99 -999 -999 -999 -99.9 -99.9 -999.9 -9.9 -9.999 -99.9 -99.99 -9.99
2020/02/28 05:30 CST   -0.13 -99.99 -999 -999 -999 -99.9 -99.9 -999.9 -9.9 -9.999 -99.9 -99.99 -9.99
2020/02/28 05:36 CST   -0.13 -99.99 -999 -999 -999 -99.9 -99.9 -999.9 -9.9 -9.999 -99.9 -99.99 -9.99
2020/02/28 05:42 CST   -0.13 -99.99 -999 -999 -999 -99.9 -99.9 -999.9 -9.9 -9.999 -99.9 -99.99 -9.99
2020/02/28 05:48 CST   -0.13 -99.99 -999 -999 -999 -99.9 -99.9 -999.9 -9.9 -9.999 -99.9 -99.99 -9.99
2020/02/28 05:54 CST   -0.13 -99.99 -999 -999 -999 -99.9 -99.9 -999.9 -9.9 -9.999 -99.9 -99.99 -9.99
2020/02/28 06:00 CST   -0.12 -99.99 -999 -999 -999 -99.9 -99.9 -999.9 -9.9 -9.999 -99.9 -99.99 -9.99
2020/02/28 06:06 CST   -0.12 -99.99 -999 -999 -999 -99.9 -99.9 -999.9 -9.9 -9.999 -99.9 -99.99 -9.99
2020/02/28 06:12 CST   -0.12 -99.99 -999 -999 -999 -99.9 -99.9 -999.9 -9.9 -9.999 -99.9 -99.99 -9.99
2020/02/28 06:18 CST   -0.11 -99.99 -999 -999 -999 -99.9 -99.9 -999.9 -9.9 -9.999 -99.9 -99.99 -9.99
2020/02/28 06:24 CST   -0.10 -99.99 -999 -999 -999 -99.9 -99.9 -999.9 -9.9 -9.999 -99.9 -99.99 -9.99
2020/02/28 06:30 CST   -0.10 -99.99 -999 -999 -999 -99.9 -99.9 -999.9 -9.9 -9.999 -99.9 -99.99 -9.99
2020/02/28 06:36 CST   -0.09 -99.99 -999 -999 -999 -99.9 -99.9 -999.9 -9.9 -9.999 -99.9 -99.99 -9.99
2020/02/28 06:42 CST   -0.08 -99.99 -999 -999 -999 -99.9 -99.9 -999.9 -9.9 -9.999 -99.9 -99.99 -9.99
2020/02/28 06:48 CST   -0.08 -99.99 -999 -999 -999 -99.9 -99.9 -999.9 -9.9 -9.999 -99.9 -99.99 -9.99
2020/02/28 06:54 CST   -0.07 -99.99 -999 -999 -999 -99.9 -99.9 -999.9 -9.9 -9.999 -99.9 -99.99 -9.99
2020/02/28 07:00 CST   -0.06 -99.99 -999 -999 -999 -99.9 -99.9 -999.9 -9.9 -9.999 -99.9 -99.99 -9.99
2020/02/28 07:06 CST   -0.05 -99.99 -999 -999 -999 -99.9 -99.9 -999.9 -9.9 -9.999 -99.9 -99.99 -9.99
2020/02/28 07:12 CST   -0.04 -99.99 -999 -999 -999 -99.9 -99.9 -999.9 -9.9 -9.999 -99.9 -99.99 -9.99
2020/02/28 07:18 CST   -0.03 -99.99 -999 -999 -999 -99.9 -99.9 -999.9 -9.9 -9.999 -99.9 -99.99 -9.99
2020/02/28 07:24 CST   -0.02 -99.99 -999 -999 -999 -99.9 -99.9 -999.9 -9.9 -9.999 -99.9 -99.99 -9.99
2020/02/28 07:30 CST   -0.01 -99.99 -999 -999 -999 -99.9 -99.9 -999.9 -9.9 -9.999 -99.9 -99.99 -9.99
2020/02/28 07:36 CST    0.00 -99.99 -999 -999 -999 -99.9 -99.9 -999.9 -9.9 -9.999 -99.9 -99.99 -9.99
2020/02/28 07:42 CST    0.01 -99.99 -999 -999 -999 -99.9 -99.9 -999.9 -9.9 -9.999 -99.9 -99.99 -9.99
2020/02/28 07:48 CST    0.02 -99.99 -999 -999 -999 -99.9 -99.9 -999.9 -9.9 -9.999 -99.9 -99.99 -9.99
2020/02/28 07:54 CST    0.03 -99.99 -999 -999 -999 -99.9 -99.9 -999.9 -9.9 -9.999 -99.9 -99.99 -9.99
2020/02/28 08:00 CST    0.04 -99.99 -999 -999 -999 -99.9 -99.9 -999.9 -9.9 -9.999 -99.9 -99.99 -9.99
2020/02/28 08:06 CST    0.06 -99.99 -999 -999 -999 -99.9 -99.9 -999.9 -9.9 -9.999 -99.9 -99.99 -9.99
2020/02/28 08:12 CST    0.07 -99.99 -999 -999 -999 -99.9 -99.9 -999.9 -9.9 -9.999 -99.9 -99.99 -9.99
2020/02/28 08:18 CST    0.08 -99.99 -999 -999 -999 -99.9 -99.9 -999.9 -9.9 -9.999 -99.9 -99.99 -9.99
2020/02/28 08:24 CST    0.09 -99.99 -999 -999 -999 -99.9 -99.9 -999.9 -9.9 -9.999 -99.9 -99.99 -9.99
2020/02/28 08:30 CST    0.10 -99.99 -999 -999 -999 -99.9 -99.9 -999.9 -9.9 -9.999 -99.9 -99.99 -9.99
2020/02/28 08:36 CST    0.11 -99.99 -999 -999 -999 -99.9 -99.9 -999.9 -9.9 -9.999 -99.9 -99.99 -9.99
2020/02/28 08:42 CST    0.13 -99.99 -999 -999 -999 -99.9 -99.9 -999.9 -9.9 -9.999 -99.9 -99.99 -9.99
2020/02/28 08:48 CST    0.14 -99.99 -999 -999 -999 -99.9 -99.9 -999.9 -9.9 -9.999 -99.9 -99.99 -9.99
2020/02/28 08:54 CST    0.15 -99.99 -999 -999 -999 -99.9 -99.9 -999.9 -9.9 -9.999 -99.9 -99.99 -9.99
2020/02/28 09:00 CST    0.17 -99.99 -999 -999 -999 -99.9 -99.9 -999.9 -9.9 -9.999 -99.9 -99.99 -9.99
2020/02/28 09:06 CST    0.18 -99.99 -999 -999 -999 -99.9 -99.9 -999.9 -9.9 -9.999 -99.9 -99.99 -9.99
2020/02/28 09:12 CST    0.19 -99.99 -999 -999 -999 -99.9 -99.9 -999.9 -9.9 -9.999 -99.9 -99.99 -9.99
2020/02/28 09:18 CST    0.21 -99.99 -999 -999 -999 -99.9 -99.9 -999.9 -9.9 -9.999 -99.9 -99.99 -9.99
2020/02/28 09:24 CST    0.22 -99.99 -999 -999 -999 -99.9 -99.9 -999.9 -9.9 -9.999 -99.9 -99.99 -9.99
2020/02/28 09:30 CST    0.23 -99.99 -999 -999 -999 -99.9 -99.9 -999.9 -9.9 -9.999 -99.9 -99.99 -9.99
2020/02/28 09:36 CST    0.25 -99.99 -999 -999 -999 -99.9 -99.9 -999.9 -9.9 -9.999 -99.9 -99.99 -9.99
2020/02/28 09:42 CST    0.26 -99.99 -999 -999 -999 -99.9 -99.9 -999.9 -9.9 -9.999 -99.9 -99.99 -9.99
2020/02/28 09:48 CST    0.27 -99.99 -999 -999 -999 -99.9 -99.9 -999.9 -9.9 -9.999 -99.9 -99.99 -9.99